createdAt,value
2023-05-19T00:02:33.801Z,6.80
2023-05-19T00:10:58.035Z,3.60
2023-05-19T00:19:22.315Z,4.50
2023-05-19T00:27:45.566Z,4.20
2023-05-19T00:36:08.807Z,6.20
2023-05-19T00:44:31.928Z,2.90
2023-05-19T00:52:56.225Z,2.70
2023-05-19T01:01:21.484Z,5.30
2023-05-19T01:09:47.148Z,4.50
2023-05-19T01:18:18.473Z,3.60
2023-05-19T01:27:29.031Z,4.70
2023-05-19T01:35:54.113Z,5.20
2023-05-19T01:44:17.068Z,4.10
2023-05-19T01:52:40.730Z,5.70
2023-05-19T02:01:04.097Z,3.80
2023-05-19T02:09:51.629Z,3.70
2023-05-19T02:18:17.951Z,3.80
2023-05-19T02:26:41.282Z,2.20
2023-05-19T02:35:04.873Z,3.40
2023-05-19T02:43:30.616Z,2.70
2023-05-19T02:51:53.623Z,4.00
2023-05-19T03:00:16.698Z,3.10
2023-05-19T03:08:42.338Z,1.80
2023-05-19T03:17:07.904Z,4.70
2023-05-19T03:25:30.982Z,4.40
2023-05-19T03:33:53.819Z,1.90
2023-05-19T03:42:17.966Z,2.30
2023-05-19T03:50:41.332Z,2.10
2023-05-19T03:59:12.341Z,3.20
2023-05-19T04:07:35.923Z,1.50
2023-05-19T04:15:59.169Z,5.00
2023-05-19T04:24:22.420Z,2.20
2023-05-19T04:32:45.961Z,4.80
2023-05-19T04:41:12.324Z,2.30
2023-05-19T04:49:39.098Z,4.40
2023-05-19T04:58:02.165Z,3.30
2023-05-19T05:06:25.743Z,2.50
2023-05-19T05:14:49.942Z,3.20
2023-05-19T05:23:17.104Z,1.90
2023-05-19T05:31:41.476Z,3.10
2023-05-19T05:40:07.148Z,3.70
2023-05-19T05:48:31.077Z,5.60
2023-05-19T05:56:54.848Z,4.30
2023-05-19T06:05:18.042Z,3.90
2023-05-19T06:13:42.054Z,5.00
2023-05-19T06:22:07.546Z,3.90
2023-05-19T06:30:31.834Z,4.90
2023-05-19T06:39:33.367Z,5.50
2023-05-19T06:47:58.362Z,11.10
2023-05-19T06:56:23.147Z,10.10
2023-05-19T07:04:47.395Z,12.40
2023-05-19T07:13:11.559Z,10.70
2023-05-19T07:21:34.611Z,9.60
2023-05-19T07:29:58.977Z,14.50
2023-05-19T07:38:22.494Z,12.40
2023-05-19T07:46:45.638Z,11.10
2023-05-19T07:55:13.058Z,15.40
2023-05-19T08:03:36.865Z,9.40
2023-05-19T08:12:01.518Z,11.20
2023-05-19T08:20:24.490Z,7.10
2023-05-19T08:28:47.576Z,13.20
2023-05-19T08:37:11.959Z,8.20
2023-05-19T08:45:35.965Z,17.40
2023-05-19T08:54:09.182Z,7.60
2023-05-19T09:02:33.376Z,7.40
2023-05-19T09:10:56.508Z,7.70
2023-05-19T09:19:20.869Z,9.80
2023-05-19T09:27:43.914Z,12.60
2023-05-19T09:36:08.640Z,8.60
2023-05-19T09:44:32.865Z,12.70
2023-05-19T09:52:56.862Z,9.10
2023-05-19T10:01:20.431Z,6.70
2023-05-19T10:09:44.870Z,9.60
2023-05-19T10:18:09.662Z,8.20
2023-05-19T10:26:35.005Z,8.20
2023-05-19T10:35:55.064Z,8.30
2023-05-19T10:44:38.911Z,8.70
2023-05-19T10:53:02.684Z,8.10
2023-05-19T11:01:34.856Z,11.20
2023-05-19T11:09:58.332Z,7.90
2023-05-19T11:18:21.476Z,10.70
2023-05-19T11:26:46.700Z,8.50
2023-05-19T11:35:10.354Z,8.60
2023-05-19T11:43:33.433Z,12.90
2023-05-19T11:51:57.444Z,8.00
2023-05-19T12:00:23.138Z,6.00
2023-05-19T12:08:46.135Z,17.90
2023-05-19T12:17:16.783Z,11.10
2023-05-19T12:25:39.771Z,12.60
2023-05-19T12:34:04.758Z,8.40
2023-05-19T12:42:31.597Z,6.50
2023-05-19T12:50:55.515Z,8.90
2023-05-19T12:59:37.221Z,7.90
2023-05-19T13:08:12.825Z,9.10
2023-05-19T13:16:35.920Z,7.20
2023-05-19T13:24:59.813Z,10.10
2023-05-19T13:33:22.688Z,8.60
2023-05-19T13:41:45.563Z,9.50
2023-05-19T13:50:08.736Z,10.60
2023-05-19T13:58:31.615Z,9.90
2023-05-19T14:06:54.864Z,8.20
2023-05-19T14:15:17.883Z,9.30
2023-05-19T14:23:41.132Z,14.70
2023-05-19T14:32:05.855Z,10.30
2023-05-19T14:40:29.147Z,12.40
2023-05-19T14:48:52.184Z,10.50
2023-05-19T14:57:15.001Z,10.00
2023-05-19T15:05:40.190Z,13.30
2023-05-19T15:14:03.084Z,11.80
2023-05-19T15:22:26.326Z,15.20
2023-05-19T15:30:49.383Z,11.60
2023-05-19T15:39:12.545Z,10.10
2023-05-19T15:47:35.848Z,10.10
2023-05-19T15:55:58.850Z,15.30
2023-05-19T16:04:21.832Z,18.00
2023-05-19T16:12:45.006Z,16.40
2023-05-19T16:21:07.929Z,12.90
2023-05-19T16:29:30.945Z,36.30
2023-05-19T16:37:54.219Z,10.10
2023-05-19T16:46:17.444Z,12.80
2023-05-19T16:54:40.561Z,13.50
2023-05-19T17:03:04.316Z,13.10
2023-05-19T17:11:27.790Z,19.50
2023-05-19T17:19:50.838Z,12.80
2023-05-19T17:28:14.869Z,14.70
2023-05-19T17:36:39.611Z,14.10
2023-05-19T17:45:07.486Z,24.00
2023-05-19T17:53:30.874Z,16.30
2023-05-19T18:01:54.380Z,17.70
2023-05-19T18:10:17.766Z,15.60
2023-05-19T18:18:43.593Z,29.10
2023-05-19T18:27:06.867Z,34.10
2023-05-19T18:35:29.779Z,22.00
2023-05-19T18:43:52.722Z,32.50
2023-05-19T18:52:15.672Z,28.60
2023-05-19T19:00:38.575Z,28.30
2023-05-19T19:09:01.548Z,16.00
2023-05-19T19:17:24.643Z,18.00
2023-05-19T19:25:47.682Z,15.70
2023-05-19T19:34:11.312Z,15.50
2023-05-19T19:42:34.213Z,18.90
2023-05-19T19:50:58.016Z,12.90
2023-05-19T19:59:21.333Z,24.00
2023-05-19T20:07:44.177Z,14.60
2023-05-19T20:16:07.390Z,12.30
2023-05-19T20:24:30.416Z,17.20
2023-05-19T20:32:53.523Z,12.20
2023-05-19T20:41:16.661Z,15.70
2023-05-19T20:49:39.746Z,13.20
2023-05-19T20:58:02.597Z,12.10
2023-05-19T21:06:25.438Z,12.40
2023-05-19T21:14:48.244Z,12.70
2023-05-19T21:23:11.213Z,10.40
2023-05-19T21:31:37.523Z,15.00
2023-05-19T21:40:00.412Z,15.40
2023-05-19T21:48:23.347Z,13.20
2023-05-19T21:56:46.355Z,16.80
2023-05-19T22:05:09.630Z,14.90
2023-05-19T22:13:33.916Z,12.20
2023-05-19T22:22:09.831Z,13.40
2023-05-19T22:30:39.309Z,13.50
2023-05-19T22:39:03.819Z,10.40
2023-05-19T22:47:27.070Z,16.20
2023-05-19T22:55:50.008Z,13.50
2023-05-19T23:04:12.943Z,15.20
2023-05-19T23:12:36.014Z,12.50
2023-05-19T23:20:58.853Z,17.10
2023-05-19T23:29:22.191Z,19.20
2023-05-19T23:37:45.275Z,18.80
2023-05-19T23:46:08.180Z,14.70
2023-05-19T23:54:31.303Z,16.30
